sensor_id;sensor_type;location;lat;lon;timestamp;pressure;altitude;pressure_sealevel;temperature;humidity
12594;BME280;6362;50.208;9.182;2023-05-10T00:00:39;99035.88;;;13.87;92.78
12594;BME280;6362;50.208;9.182;2023-05-10T00:03:05;99035.84;;;13.89;93.08
12594;BME280;6362;50.208;9.182;2023-05-10T00:05:31;99032.03;;;13.97;91.84
12594;BME280;6362;50.208;9.182;2023-05-10T00:07:57;99032.94;;;13.96;92.28
12594;BME280;6362;50.208;9.182;2023-05-10T00:10:22;99037.31;;;13.96;91.62
12594;BME280;6362;50.208;9.182;2023-05-10T00:12:48;99038.88;;;14.02;91.36
12594;BME280;6362;50.208;9.182;2023-05-10T00:15:13;99030.88;;;14.06;91.57
12594;BME280;6362;50.208;9.182;2023-05-10T00:17:39;99032.50;;;14.09;91.83
12594;BME280;6362;50.208;9.182;2023-05-10T00:20:05;99023.72;;;14.11;91.84
12594;BME280;6362;50.208;9.182;2023-05-10T00:22:31;99028.72;;;14.17;91.75
12594;BME280;6362;50.208;9.182;2023-05-10T00:24:57;99023.97;;;14.04;92.36
12594;BME280;6362;50.208;9.182;2023-05-10T00:27:23;99050.47;;;13.94;93.24
12594;BME280;6362;50.208;9.182;2023-05-10T00:29:48;99033.47;;;14.06;89.05
12594;BME280;6362;50.208;9.182;2023-05-10T00:32:13;99041.56;;;13.98;87.20
12594;BME280;6362;50.208;9.182;2023-05-10T00:34:39;99033.94;;;13.92;87.29
12594;BME280;6362;50.208;9.182;2023-05-10T00:37:05;99037.13;;;13.77;87.53
12594;BME280;6362;50.208;9.182;2023-05-10T00:39:31;99037.00;;;13.55;86.80
12594;BME280;6362;50.208;9.182;2023-05-10T00:41:56;99041.53;;;13.50;88.02
12594;BME280;6362;50.208;9.182;2023-05-10T00:44:21;99036.66;;;13.39;88.15
12594;BME280;6362;50.208;9.182;2023-05-10T00:46:48;99037.94;;;13.28;89.22
12594;BME280;6362;50.208;9.182;2023-05-10T00:49:14;99036.38;;;13.20;89.29
12594;BME280;6362;50.208;9.182;2023-05-10T00:51:40;99050.78;;;13.06;89.80
12594;BME280;6362;50.208;9.182;2023-05-10T00:54:08;99052.56;;;13.05;90.05
12594;BME280;6362;50.208;9.182;2023-05-10T00:56:34;99047.34;;;13.05;90.25
12594;BME280;6362;50.208;9.182;2023-05-10T00:58:59;99056.91;;;13.05;90.52
12594;BME280;6362;50.208;9.182;2023-05-10T01:01:25;99059.53;;;13.05;90.51
12594;BME280;6362;50.208;9.182;2023-05-10T01:03:50;99073.47;;;13.04;90.88
12594;BME280;6362;50.208;9.182;2023-05-10T01:06:16;99070.00;;;13.03;90.92
12594;BME280;6362;50.208;9.182;2023-05-10T01:08:41;99073.50;;;13.02;91.29
12594;BME280;6362;50.208;9.182;2023-05-10T01:11:07;99071.94;;;12.97;91.56
12594;BME280;6362;50.208;9.182;2023-05-10T01:13:34;99073.75;;;12.94;92.37
12594;BME280;6362;50.208;9.182;2023-05-10T01:16:01;99063.53;;;12.88;92.87
12594;BME280;6362;50.208;9.182;2023-05-10T01:18:29;99075.03;;;12.81;92.73
12594;BME280;6362;50.208;9.182;2023-05-10T01:24:12;99076.50;;;12.90;92.40
12594;BME280;6362;50.208;9.182;2023-05-10T01:27:14;99071.09;;;12.96;92.47
12594;BME280;6362;50.208;9.182;2023-05-10T01:35:00;99074.84;;;12.87;92.08
12594;BME280;6362;50.208;9.182;2023-05-10T01:40:20;99082.97;;;12.78;92.33
12594;BME280;6362;50.208;9.182;2023-05-10T01:42:59;99076.72;;;12.82;91.53
12594;BME280;6362;50.208;9.182;2023-05-10T01:45:30;99078.59;;;12.79;91.95
12594;BME280;6362;50.208;9.182;2023-05-10T01:48:09;99080.38;;;12.77;91.73
12594;BME280;6362;50.208;9.182;2023-05-10T01:50:39;99082.97;;;12.78;91.63
12594;BME280;6362;50.208;9.182;2023-05-10T01:53:08;99089.88;;;12.79;91.04
12594;BME280;6362;50.208;9.182;2023-05-10T01:55:47;99080.56;;;12.71;91.45
12594;BME280;6362;50.208;9.182;2023-05-10T01:58:32;99086.69;;;12.69;91.71
12594;BME280;6362;50.208;9.182;2023-05-10T02:01:01;99092.94;;;12.64;91.78
12594;BME280;6362;50.208;9.182;2023-05-10T02:03:30;99096.28;;;12.69;91.22
12594;BME280;6362;50.208;9.182;2023-05-10T02:05:57;99094.75;;;12.62;91.62
12594;BME280;6362;50.208;9.182;2023-05-10T02:08:23;99097.41;;;12.60;91.91
12594;BME280;6362;50.208;9.182;2023-05-10T02:10:54;99097.88;;;12.43;92.67
12594;BME280;6362;50.208;9.182;2023-05-10T02:13:21;99110.03;;;12.45;93.07
12594;BME280;6362;50.208;9.182;2023-05-10T02:15:48;99118.84;;;12.40;92.92
12594;BME280;6362;50.208;9.182;2023-05-10T02:18:15;99119.84;;;12.35;93.24
12594;BME280;6362;50.208;9.182;2023-05-10T02:20:43;99123.31;;;12.35;93.63
12594;BME280;6362;50.208;9.182;2023-05-10T02:23:11;99122.53;;;12.32;93.56
12594;BME280;6362;50.208;9.182;2023-05-10T02:25:37;99129.34;;;12.37;93.79
12594;BME280;6362;50.208;9.182;2023-05-10T02:28:05;99124.41;;;12.27;93.71
12594;BME280;6362;50.208;9.182;2023-05-10T02:30:33;99131.38;;;12.26;93.58
12594;BME280;6362;50.208;9.182;2023-05-10T02:33:00;99131.25;;;12.31;92.83
12594;BME280;6362;50.208;9.182;2023-05-10T02:35:28;99134.91;;;12.25;93.40
12594;BME280;6362;50.208;9.182;2023-05-10T02:37:54;99131.38;;;12.26;93.29
12594;BME280;6362;50.208;9.182;2023-05-10T02:40:21;99130.41;;;12.30;93.31
12594;BME280;6362;50.208;9.182;2023-05-10T02:42:50;99140.09;;;12.25;93.56
12594;BME280;6362;50.208;9.182;2023-05-10T02:45:21;99138.44;;;12.23;93.51
12594;BME280;6362;50.208;9.182;2023-05-10T02:47:48;99139.25;;;12.25;93.64
12594;BME280;6362;50.208;9.182;2023-05-10T02:50:13;99135.88;;;12.21;93.68
12594;BME280;6362;50.208;9.182;2023-05-10T02:52:49;99135.84;;;12.23;93.45
12594;BME280;6362;50.208;9.182;2023-05-10T02:55:19;99135.06;;;12.19;93.62
12594;BME280;6362;50.208;9.182;2023-05-10T02:57:51;99137.88;;;12.11;93.94
12594;BME280;6362;50.208;9.182;2023-05-10T03:00:18;99144.81;;;12.12;94.49
12594;BME280;6362;50.208;9.182;2023-05-10T03:02:44;99139.66;;;12.09;94.91
12594;BME280;6362;50.208;9.182;2023-05-10T03:05:09;99139.41;;;12.19;94.67
12594;BME280;6362;50.208;9.182;2023-05-10T03:07:35;99145.72;;;12.10;94.34
12594;BME280;6362;50.208;9.182;2023-05-10T03:10:01;99149.22;;;12.09;94.72
12594;BME280;6362;50.208;9.182;2023-05-10T03:15:51;99144.75;;;12.14;94.36
12594;BME280;6362;50.208;9.182;2023-05-10T03:18:23;99149.06;;;12.15;94.22
12594;BME280;6362;50.208;9.182;2023-05-10T03:20:57;99154.03;;;12.24;93.79
12594;BME280;6362;50.208;9.182;2023-05-10T03:23:34;99153.25;;;12.21;93.29
12594;BME280;6362;50.208;9.182;2023-05-10T03:26:00;99155.69;;;12.28;93.01
12594;BME280;6362;50.208;9.182;2023-05-10T03:28:27;99159.09;;;12.30;92.77
12594;BME280;6362;50.208;9.182;2023-05-10T03:30:56;99157.50;;;12.25;93.08
12594;BME280;6362;50.208;9.182;2023-05-10T03:33:22;99151.66;;;12.15;93.32
12594;BME280;6362;50.208;9.182;2023-05-10T03:35:48;99155.84;;;12.22;93.05
12594;BME280;6362;50.208;9.182;2023-05-10T03:38:13;99165.53;;;12.17;93.17
12594;BME280;6362;50.208;9.182;2023-05-10T03:40:39;99166.44;;;12.16;93.57
12594;BME280;6362;50.208;9.182;2023-05-10T03:43:04;99173.31;;;12.19;93.73
12594;BME280;6362;50.208;9.182;2023-05-10T03:45:30;99176.88;;;12.14;93.76
12594;BME280;6362;50.208;9.182;2023-05-10T03:47:57;99177.88;;;12.10;94.21
12594;BME280;6362;50.208;9.182;2023-05-10T03:50:22;99175.28;;;12.10;93.67
12594;BME280;6362;50.208;9.182;2023-05-10T03:52:48;99177.72;;;12.17;93.48
12594;BME280;6362;50.208;9.182;2023-05-10T03:55:13;99175.38;;;12.06;93.89
12594;BME280;6362;50.208;9.182;2023-05-10T03:57:38;99174.38;;;12.10;93.77
12594;BME280;6362;50.208;9.182;2023-05-10T04:00:04;99168.31;;;12.09;93.79
12594;BME280;6362;50.208;9.182;2023-05-10T04:02:30;99180.38;;;12.13;93.76
12594;BME280;6362;50.208;9.182;2023-05-10T04:04:56;99187.34;;;12.13;93.60
12594;BME280;6362;50.208;9.182;2023-05-10T04:07:21;99182.78;;;12.23;93.02
12594;BME280;6362;50.208;9.182;2023-05-10T04:09:47;99194.31;;;12.12;93.38
12594;BME280;6362;50.208;9.182;2023-05-10T04:12:13;99195.13;;;12.14;93.63
12594;BME280;6362;50.208;9.182;2023-05-10T04:14:38;99190.81;;;12.13;93.33
12594;BME280;6362;50.208;9.182;2023-05-10T04:17:03;99201.34;;;12.10;94.02
12594;BME280;6362;50.208;9.182;2023-05-10T04:19:30;99198.69;;;12.12;93.75
12594;BME280;6362;50.208;9.182;2023-05-10T04:21:55;99198.75;;;12.09;93.53
12594;BME280;6362;50.208;9.182;2023-05-10T04:24:21;99203.19;;;12.05;93.78
12594;BME280;6362;50.208;9.182;2023-05-10T04:26:46;99197.16;;;12.03;94.43
12594;BME280;6362;50.208;9.182;2023-05-10T04:29:12;99192.78;;;12.05;94.66
12594;BME280;6362;50.208;9.182;2023-05-10T04:31:37;99196.19;;;12.07;94.48
12594;BME280;6362;50.208;9.182;2023-05-10T04:34:03;99198.75;;;12.09;94.78
12594;BME280;6362;50.208;9.182;2023-05-10T04:36:28;99194.22;;;12.17;94.41
12594;BME280;6362;50.208;9.182;2023-05-10T04:38:54;99199.50;;;12.14;94.40
12594;BME280;6362;50.208;9.182;2023-05-10T04:41:19;99196.78;;;12.19;94.90
12594;BME280;6362;50.208;9.182;2023-05-10T04:43:46;99202.72;;;12.24;94.97
12594;BME280;6362;50.208;9.182;2023-05-10T04:46:14;99208.84;;;12.23;94.44
12594;BME280;6362;50.208;9.182;2023-05-10T04:48:39;99212.03;;;12.32;94.78
12594;BME280;6362;50.208;9.182;2023-05-10T04:51:05;99223.31;;;12.34;94.49
12594;BME280;6362;50.208;9.182;2023-05-10T04:53:31;99226.66;;;12.38;94.50
12594;BME280;6362;50.208;9.182;2023-05-10T04:55:57;99232.63;;;12.43;94.67
12594;BME280;6362;50.208;9.182;2023-05-10T04:58:23;99227.44;;;12.41;94.60
12594;BME280;6362;50.208;9.182;2023-05-10T05:00:48;99229.16;;;12.44;94.77
12594;BME280;6362;50.208;9.182;2023-05-10T05:03:14;99236.88;;;12.47;94.82
12594;BME280;6362;50.208;9.182;2023-05-10T05:05:40;99235.16;;;12.46;94.80
12594;BME280;6362;50.208;9.182;2023-05-10T05:08:05;99238.63;;;12.47;94.47
12594;BME280;6362;50.208;9.182;2023-05-10T05:10:31;99228.19;;;12.47;94.02
12594;BME280;6362;50.208;9.182;2023-05-10T05:12:56;99237.66;;;12.49;93.48
12594;BME280;6362;50.208;9.182;2023-05-10T05:15:22;99229.78;;;12.52;93.07
12594;BME280;6362;50.208;9.182;2023-05-10T05:17:47;99240.16;;;12.54;92.71
12594;BME280;6362;50.208;9.182;2023-05-10T05:20:13;99247.13;;;12.55;92.53
12594;BME280;6362;50.208;9.182;2023-05-10T05:22:38;99247.03;;;12.58;92.62
12594;BME280;6362;50.208;9.182;2023-05-10T05:25:04;99248.88;;;12.53;92.27
12594;BME280;6362;50.208;9.182;2023-05-10T05:27:31;99251.38;;;12.57;91.98
12594;BME280;6362;50.208;9.182;2023-05-10T05:29:56;99242.81;;;12.52;92.08
12594;BME280;6362;50.208;9.182;2023-05-10T05:32:23;99250.69;;;12.51;92.37
12594;BME280;6362;50.208;9.182;2023-05-10T05:34:49;99249.06;;;12.47;92.26
12594;BME280;6362;50.208;9.182;2023-05-10T05:37:15;99248.09;;;12.51;92.26
12594;BME280;6362;50.208;9.182;2023-05-10T05:39:41;99249.00;;;12.50;92.35
12594;BME280;6362;50.208;9.182;2023-05-10T05:42:08;99248.09;;;12.49;92.68
12594;BME280;6362;50.208;9.182;2023-05-10T05:44:33;99250.69;;;12.51;92.79
12594;BME280;6362;50.208;9.182;2023-05-10T05:46:59;99253.25;;;12.52;93.23
12594;BME280;6362;50.208;9.182;2023-05-10T05:49:24;99250.69;;;12.51;93.35
12594;BME280;6362;50.208;9.182;2023-05-10T05:51:50;99247.13;;;12.53;93.02
12594;BME280;6362;50.208;9.182;2023-05-10T05:54:15;99246.28;;;12.53;92.79
12594;BME280;6362;50.208;9.182;2023-05-10T05:56:41;99250.56;;;12.55;92.89
12594;BME280;6362;50.208;9.182;2023-05-10T05:59:06;99259.09;;;12.62;91.48
12594;BME280;6362;50.208;9.182;2023-05-10T06:01:32;99258.19;;;12.63;91.72
12594;BME280;6362;50.208;9.182;2023-05-10T06:03:57;99265.22;;;12.61;91.98
12594;BME280;6362;50.208;9.182;2023-05-10T06:06:23;99266.97;;;12.60;92.33
12594;BME280;6362;50.208;9.182;2023-05-10T06:08:48;99268.22;;;12.78;90.83
12594;BME280;6362;50.208;9.182;2023-05-10T06:11:14;99271.81;;;12.74;90.66
12594;BME280;6362;50.208;9.182;2023-05-10T06:13:39;99265.78;;;12.72;90.79
12594;BME280;6362;50.208;9.182;2023-05-10T06:16:05;99276.72;;;12.85;90.27
12594;BME280;6362;50.208;9.182;2023-05-10T06:18:31;99275.59;;;12.93;89.83
12594;BME280;6362;50.208;9.182;2023-05-10T06:20:56;99272.28;;;12.88;89.59
12594;BME280;6362;50.208;9.182;2023-05-10T06:23:22;99275.28;;;13.06;91.18
12594;BME280;6362;50.208;9.182;2023-05-10T06:25:48;99278.44;;;13.17;90.22
12594;BME280;6362;50.208;9.182;2023-05-10T06:28:13;99279.25;;;13.19;88.38
12594;BME280;6362;50.208;9.182;2023-05-10T06:30:39;99267.63;;;13.31;88.87
12594;BME280;6362;50.208;9.182;2023-05-10T06:33:04;99275.56;;;13.28;87.76
12594;BME280;6362;50.208;9.182;2023-05-10T06:35:30;99283.09;;;13.38;86.40
12594;BME280;6362;50.208;9.182;2023-05-10T06:37:57;99278.91;;;13.33;87.40
12594;BME280;6362;50.208;9.182;2023-05-10T06:40:22;99288.31;;;13.38;86.81
12594;BME280;6362;50.208;9.182;2023-05-10T06:42:48;99283.22;;;13.34;86.91
12594;BME280;6362;50.208;9.182;2023-05-10T06:45:14;99291.91;;;13.34;87.00
12594;BME280;6362;50.208;9.182;2023-05-10T06:47:40;99291.78;;;13.37;87.71
12594;BME280;6362;50.208;9.182;2023-05-10T06:50:07;99292.63;;;13.39;87.17
12594;BME280;6362;50.208;9.182;2023-05-10T06:52:33;99294.41;;;13.37;86.09
12594;BME280;6362;50.208;9.182;2023-05-10T06:54:59;99287.31;;;13.42;84.91
12594;BME280;6362;50.208;9.182;2023-05-10T06:57:25;99291.06;;;13.32;85.67
12594;BME280;6362;50.208;9.182;2023-05-10T06:59:51;99298.09;;;13.30;86.26
12594;BME280;6362;50.208;9.182;2023-05-10T07:02:17;99296.16;;;13.37;86.08
12594;BME280;6362;50.208;9.182;2023-05-10T07:04:42;99297.19;;;13.33;86.39
12594;BME280;6362;50.208;9.182;2023-05-10T07:07:08;99296.03;;;13.41;86.19
12594;BME280;6362;50.208;9.182;2023-05-10T07:09:34;99298.59;;;13.43;85.89
12594;BME280;6362;50.208;9.182;2023-05-10T07:11:59;99295.25;;;13.39;85.89
12594;BME280;6362;50.208;9.182;2023-05-10T07:14:25;99298.28;;;13.54;85.14
12594;BME280;6362;50.208;9.182;2023-05-10T07:16:50;99299.31;;;13.48;84.57
12594;BME280;6362;50.208;9.182;2023-05-10T07:19:15;99312.69;;;13.37;84.94
12594;BME280;6362;50.208;9.182;2023-05-10T07:21:41;99305.72;;;13.38;85.06
12594;BME280;6362;50.208;9.182;2023-05-10T07:24:08;99301.09;;;13.47;84.56
12594;BME280;6362;50.208;9.182;2023-05-10T07:26:34;99305.41;;;13.48;84.55
12594;BME280;6362;50.208;9.182;2023-05-10T07:29:05;99308.88;;;13.49;84.59
12594;BME280;6362;50.208;9.182;2023-05-10T07:31:30;99308.72;;;13.54;84.36
12594;BME280;6362;50.208;9.182;2023-05-10T07:33:56;99311.09;;;13.63;83.77
12594;BME280;6362;50.208;9.182;2023-05-10T07:36:25;99311.31;;;13.55;83.81
12594;BME280;6362;50.208;9.182;2023-05-10T07:38:50;99313.28;;;13.47;85.07
12594;BME280;6362;50.208;9.182;2023-05-10T07:41:16;99314.78;;;13.56;85.06
12594;BME280;6362;50.208;9.182;2023-05-10T07:43:41;99310.81;;;13.72;84.25
12594;BME280;6362;50.208;9.182;2023-05-10T07:51:11;99321.81;;;13.83;83.05
12594;BME280;6362;50.208;9.182;2023-05-10T07:53:37;99323.41;;;13.87;83.18
12594;BME280;6362;50.208;9.182;2023-05-10T07:58:48;99332.81;;;13.93;82.94
12594;BME280;6362;50.208;9.182;2023-05-10T08:01:14;99327.75;;;13.88;83.11
12594;BME280;6362;50.208;9.182;2023-05-10T08:03:39;99332.88;;;13.91;83.09
12594;BME280;6362;50.208;9.182;2023-05-10T08:06:05;99333.00;;;13.87;83.65
12594;BME280;6362;50.208;9.182;2023-05-10T08:08:31;99342.75;;;13.82;83.99
12594;BME280;6362;50.208;9.182;2023-05-10T08:10:56;99340.91;;;13.85;83.71
12594;BME280;6362;50.208;9.182;2023-05-10T08:13:22;99337.38;;;13.86;83.87
12594;BME280;6362;50.208;9.182;2023-05-10T08:15:47;99346.97;;;13.86;83.39
12594;BME280;6362;50.208;9.182;2023-05-10T08:18:13;99340.63;;;13.94;82.79
12594;BME280;6362;50.208;9.182;2023-05-10T08:20:38;99338.22;;;13.87;82.56
12594;BME280;6362;50.208;9.182;2023-05-10T08:23:04;99341.56;;;13.92;82.56
12594;BME280;6362;50.208;9.182;2023-05-10T08:25:29;99354.75;;;13.89;82.38
12594;BME280;6362;50.208;9.182;2023-05-10T08:27:55;99350.22;;;13.94;81.73
12594;BME280;6362;50.208;9.182;2023-05-10T08:30:20;99344.13;;;13.93;81.60
12594;BME280;6362;50.208;9.182;2023-05-10T08:32:46;99352.53;;;14.03;81.76
12594;BME280;6362;50.208;9.182;2023-05-10T08:35:11;99359.25;;;14.12;81.55
12594;BME280;6362;50.208;9.182;2023-05-10T08:37:37;99352.97;;;14.17;80.63
12594;BME280;6362;50.208;9.182;2023-05-10T08:40:02;99358.94;;;14.21;81.05
12594;BME280;6362;50.208;9.182;2023-05-10T08:42:30;99362.13;;;14.31;80.33
12594;BME280;6362;50.208;9.182;2023-05-10T08:44:57;99367.81;;;14.43;78.64
12594;BME280;6362;50.208;9.182;2023-05-10T08:47:23;99371.16;;;14.50;79.56
12594;BME280;6362;50.208;9.182;2023-05-10T08:49:48;99371.69;;;14.60;79.43
12594;BME280;6362;50.208;9.182;2023-05-10T08:52:16;99369.47;;;14.74;79.84
12594;BME280;6362;50.208;9.182;2023-05-10T08:54:42;99376.69;;;14.92;77.23
12594;BME280;6362;50.208;9.182;2023-05-10T08:57:08;99380.38;;;14.87;77.52
12594;BME280;6362;50.208;9.182;2023-05-10T08:59:34;99382.63;;;14.97;78.17
12594;BME280;6362;50.208;9.182;2023-05-10T09:02:00;99376.09;;;15.11;76.30
12594;BME280;6362;50.208;9.182;2023-05-10T09:04:27;99374.41;;;15.08;76.51
12594;BME280;6362;50.208;9.182;2023-05-10T09:06:53;99376.03;;;15.12;77.85
12594;BME280;6362;50.208;9.182;2023-05-10T09:09:19;99380.25;;;15.16;77.41
12594;BME280;6362;50.208;9.182;2023-05-10T09:11:45;99379.75;;;15.30;77.01
12594;BME280;6362;50.208;9.182;2023-05-10T09:14:12;99380.97;;;15.45;77.11
12594;BME280;6362;50.208;9.182;2023-05-10T09:16:40;99388.38;;;15.57;75.11
12594;BME280;6362;50.208;9.182;2023-05-10T09:19:06;99385.78;;;15.57;73.72
12594;BME280;6362;50.208;9.182;2023-05-10T09:21:34;99382.41;;;15.53;74.62
12594;BME280;6362;50.208;9.182;2023-05-10T09:24:03;99380.09;;;15.69;73.62
12594;BME280;6362;50.208;9.182;2023-05-10T09:26:29;99388.47;;;15.79;72.93
12594;BME280;6362;50.208;9.182;2023-05-10T09:28:56;99376.44;;;15.97;74.52
12594;BME280;6362;50.208;9.182;2023-05-10T09:31:22;99374.69;;;16.19;72.57
12594;BME280;6362;50.208;9.182;2023-05-10T09:33:49;99381.63;;;16.42;72.47
12594;BME280;6362;50.208;9.182;2023-05-10T09:36:15;99383.31;;;16.65;70.71
12594;BME280;6362;50.208;9.182;2023-05-10T09:38:48;99386.69;;;16.69;68.71
12594;BME280;6362;50.208;9.182;2023-05-10T09:41:22;99387.31;;;16.75;68.59
12594;BME280;6362;50.208;9.182;2023-05-10T09:43:48;99382.06;;;16.75;68.41
12594;BME280;6362;50.208;9.182;2023-05-10T09:46:15;99384.19;;;16.66;68.88
12594;BME280;6362;50.208;9.182;2023-05-10T09:48:42;99383.47;;;16.62;69.10
12594;BME280;6362;50.208;9.182;2023-05-10T09:51:08;99378.72;;;16.50;69.00
12594;BME280;6362;50.208;9.182;2023-05-10T09:53:33;99373.75;;;16.42;69.44
12594;BME280;6362;50.208;9.182;2023-05-10T09:55:59;99380.84;;;16.40;69.72
12594;BME280;6362;50.208;9.182;2023-05-10T09:58:24;99374.63;;;16.43;69.56
12594;BME280;6362;50.208;9.182;2023-05-10T10:00:50;99373.84;;;16.41;70.93
12594;BME280;6362;50.208;9.182;2023-05-10T10:03:19;99382.56;;;16.41;72.67
12594;BME280;6362;50.208;9.182;2023-05-10T10:05:46;99381.81;;;16.37;70.72
12594;BME280;6362;50.208;9.182;2023-05-10T10:08:12;99377.72;;;16.52;69.95
12594;BME280;6362;50.208;9.182;2023-05-10T10:10:38;99380.94;;;16.81;70.35
12594;BME280;6362;50.208;9.182;2023-05-10T10:13:06;99374.13;;;16.97;66.51
12594;BME280;6362;50.208;9.182;2023-05-10T10:15:32;99376.88;;;17.35;66.77
12594;BME280;6362;50.208;9.182;2023-05-10T10:17:58;99376.22;;;17.50;65.33
12594;BME280;6362;50.208;9.182;2023-05-10T10:20:25;99371.72;;;17.73;64.75
12594;BME280;6362;50.208;9.182;2023-05-10T10:22:50;99372.41;;;18.14;65.92
12594;BME280;6362;50.208;9.182;2023-05-10T10:25:17;99367.69;;;18.20;62.95
12594;BME280;6362;50.208;9.182;2023-05-10T10:30:37;99372.78;;;18.06;60.96
12594;BME280;6362;50.208;9.182;2023-05-10T10:35:49;99377.34;;;17.45;62.90
12594;BME280;6362;50.208;9.182;2023-05-10T10:38:15;99373.94;;;17.22;63.59
12594;BME280;6362;50.208;9.182;2023-05-10T10:40:42;99384.44;;;16.81;64.68
12594;BME280;6362;50.208;9.182;2023-05-10T10:43:24;99384.50;;;16.58;66.78
12594;BME280;6362;50.208;9.182;2023-05-10T10:48:39;99395.56;;;15.99;70.65
12594;BME280;6362;50.208;9.182;2023-05-10T10:51:04;99387.06;;;15.94;71.74
12594;BME280;6362;50.208;9.182;2023-05-10T10:53:30;99391.63;;;15.89;71.41
12594;BME280;6362;50.208;9.182;2023-05-10T10:56:09;99392.03;;;15.78;71.98
12594;BME280;6362;50.208;9.182;2023-05-10T10:58:37;99396.53;;;15.74;71.69
12594;BME280;6362;50.208;9.182;2023-05-10T11:01:14;99393.03;;;15.49;71.29
12594;BME280;6362;50.208;9.182;2023-05-10T11:03:41;99402.91;;;15.42;72.57
12594;BME280;6362;50.208;9.182;2023-05-10T11:06:32;99406.59;;;15.37;73.18
12594;BME280;6362;50.208;9.182;2023-05-10T11:08:59;99406.75;;;15.32;74.40
12594;BME280;6362;50.208;9.182;2023-05-10T11:11:30;99409.38;;;15.32;75.13
12594;BME280;6362;50.208;9.182;2023-05-10T11:14:03;99412.66;;;15.39;76.37
12594;BME280;6362;50.208;9.182;2023-05-10T11:16:41;99417.34;;;15.29;77.30
12594;BME280;6362;50.208;9.182;2023-05-10T11:19:09;99411.81;;;15.37;78.46
12594;BME280;6362;50.208;9.182;2023-05-10T11:21:46;99416.00;;;15.17;78.49
12594;BME280;6362;50.208;9.182;2023-05-10T11:24:14;99422.03;;;14.94;79.58
12594;BME280;6362;50.208;9.182;2023-05-10T11:26:40;99423.41;;;14.79;80.05
12594;BME280;6362;50.208;9.182;2023-05-10T11:29:05;99430.69;;;14.70;80.22
12594;BME280;6362;50.208;9.182;2023-05-10T11:31:31;99432.66;;;14.63;80.24
12594;BME280;6362;50.208;9.182;2023-05-10T11:33:58;99433.97;;;14.50;80.63
12594;BME280;6362;50.208;9.182;2023-05-10T11:36:26;99442.19;;;14.36;80.73
12594;BME280;6362;50.208;9.182;2023-05-10T11:38:53;99443.34;;;14.27;81.79
12594;BME280;6362;50.208;9.182;2023-05-10T11:41:19;99443.88;;;14.39;81.11
12594;BME280;6362;50.208;9.182;2023-05-10T11:43:50;99443.88;;;14.39;81.07
12594;BME280;6362;50.208;9.182;2023-05-10T11:46:18;99440.94;;;14.49;80.71
12594;BME280;6362;50.208;9.182;2023-05-10T11:48:49;99443.59;;;14.48;79.65
12594;BME280;6362;50.208;9.182;2023-05-10T11:51:15;99447.34;;;14.39;79.77
12594;BME280;6362;50.208;9.182;2023-05-10T11:53:44;99441.50;;;14.59;78.96
12594;BME280;6362;50.208;9.182;2023-05-10T11:56:11;99439.59;;;14.64;78.51
12594;BME280;6362;50.208;9.182;2023-05-10T11:58:38;99447.75;;;14.82;77.61
12594;BME280;6362;50.208;9.182;2023-05-10T12:01:05;99457.59;;;15.01;76.44
12594;BME280;6362;50.208;9.182;2023-05-10T12:03:31;99448.41;;;15.15;75.47
12594;BME280;6362;50.208;9.182;2023-05-10T12:05:58;99450.56;;;15.28;75.68
12594;BME280;6362;50.208;9.182;2023-05-10T12:08:26;99452.66;;;15.44;75.72
12594;BME280;6362;50.208;9.182;2023-05-10T12:10:53;99453.78;;;15.60;75.34
12594;BME280;6362;50.208;9.182;2023-05-10T12:13:19;99453.66;;;15.90;73.62
12594;BME280;6362;50.208;9.182;2023-05-10T12:15:47;99454.41;;;16.39;73.39
12594;BME280;6362;50.208;9.182;2023-05-10T12:18:13;99450.41;;;16.74;72.66
12594;BME280;6362;50.208;9.182;2023-05-10T12:20:39;99459.50;;;16.87;70.00
12594;BME280;6362;50.208;9.182;2023-05-10T12:23:07;99455.84;;;16.91;67.56
12594;BME280;6362;50.208;9.182;2023-05-10T12:25:34;99460.56;;;17.03;68.43
12594;BME280;6362;50.208;9.182;2023-05-10T12:28:03;99457.59;;;16.91;64.69
12594;BME280;6362;50.208;9.182;2023-05-10T12:30:30;99466.16;;;16.96;65.54
12594;BME280;6362;50.208;9.182;2023-05-10T12:33:09;99465.78;;;17.05;66.65
12594;BME280;6362;50.208;9.182;2023-05-10T12:35:52;99473.75;;;17.24;67.28
12594;BME280;6362;50.208;9.182;2023-05-10T12:41:01;99468.44;;;17.03;66.95
12594;BME280;6362;50.208;9.182;2023-05-10T12:43:28;99467.19;;;16.92;67.71
12594;BME280;6362;50.208;9.182;2023-05-10T12:45:54;99464.81;;;16.85;67.72
12594;BME280;6362;50.208;9.182;2023-05-10T12:48:19;99468.19;;;16.66;68.16
12594;BME280;6362;50.208;9.182;2023-05-10T12:50:45;99473.91;;;16.55;68.62
12594;BME280;6362;50.208;9.182;2023-05-10T12:53:12;99469.41;;;16.35;68.85
12594;BME280;6362;50.208;9.182;2023-05-10T12:55:39;99470.56;;;16.28;69.85
12594;BME280;6362;50.208;9.182;2023-05-10T12:58:04;99472.63;;;16.20;70.31
12594;BME280;6362;50.208;9.182;2023-05-10T13:00:29;99468.63;;;16.33;69.58
12594;BME280;6362;50.208;9.182;2023-05-10T13:02:55;99479.81;;;16.38;69.50
12594;BME280;6362;50.208;9.182;2023-05-10T13:05:20;99472.97;;;16.34;69.61
12594;BME280;6362;50.208;9.182;2023-05-10T13:07:46;99485.91;;;16.39;69.96
12594;BME280;6362;50.208;9.182;2023-05-10T13:10:11;99479.50;;;16.46;69.53
12594;BME280;6362;50.208;9.182;2023-05-10T13:12:36;99477.47;;;16.52;67.76
12594;BME280;6362;50.208;9.182;2023-05-10T13:15:02;99484.69;;;16.47;68.63
12594;BME280;6362;50.208;9.182;2023-05-10T13:17:28;99479.81;;;16.38;68.04
12594;BME280;6362;50.208;9.182;2023-05-10T13:19:53;99475.22;;;16.43;67.44
12594;BME280;6362;50.208;9.182;2023-05-10T13:22:19;99482.91;;;16.48;67.85
12594;BME280;6362;50.208;9.182;2023-05-10T13:24:44;99491.53;;;16.51;67.81
12594;BME280;6362;50.208;9.182;2023-05-10T13:27:10;99485.88;;;16.62;70.37
12594;BME280;6362;50.208;9.182;2023-05-10T13:29:35;99484.88;;;16.88;70.00
12594;BME280;6362;50.208;9.182;2023-05-10T13:32:01;99489.84;;;17.16;69.14
12594;BME280;6362;50.208;9.182;2023-05-10T13:34:26;99490.28;;;17.26;66.28
12594;BME280;6362;50.208;9.182;2023-05-10T13:36:52;99486.84;;;17.66;66.73
12594;BME280;6362;50.208;9.182;2023-05-10T13:39:19;99482.75;;;18.00;64.31
12594;BME280;6362;50.208;9.182;2023-05-10T13:41:45;99473.69;;;18.43;65.41